sensor_id;sensor_type;location;lat;lon;timestamp;P1;durP1;ratioP1;P2;durP2;ratioP2
68593;SDS011;55563;52.416;13.548;2023-06-22T00:02:23;6.93;;;5.72;;
68593;SDS011;55563;52.416;13.548;2023-06-22T00:06:25;7.68;;;5.78;;
68593;SDS011;55563;52.416;13.548;2023-06-22T00:10:26;6.50;;;5.47;;
68593;SDS011;55563;52.416;13.548;2023-06-22T00:12:27;7.57;;;6.10;;
68593;SDS011;55563;52.416;13.548;2023-06-22T00:14:27;7.07;;;6.00;;
68593;SDS011;55563;52.416;13.548;2023-06-22T00:18:29;7.05;;;5.72;;
68593;SDS011;55563;52.416;13.548;2023-06-22T00:20:30;6.50;;;5.70;;
68593;SDS011;55563;52.416;13.548;2023-06-22T00:22:32;7.28;;;5.80;;
68593;SDS011;55563;52.416;13.548;2023-06-22T00:24:38;7.50;;;6.18;;
68593;SDS011;55563;52.416;13.548;2023-06-22T00:26:39;7.80;;;5.75;;
68593;SDS011;55563;52.416;13.548;2023-06-22T00:28:43;8.85;;;6.00;;
68593;SDS011;55563;52.416;13.548;2023-06-22T00:30:44;6.40;;;5.45;;
68593;SDS011;55563;52.416;13.548;2023-06-22T00:32:45;6.90;;;5.82;;
68593;SDS011;55563;52.416;13.548;2023-06-22T00:34:48;7.63;;;5.80;;
68593;SDS011;55563;52.416;13.548;2023-06-22T00:36:50;7.88;;;5.93;;
68593;SDS011;55563;52.416;13.548;2023-06-22T00:38:52;6.75;;;5.80;;
68593;SDS011;55563;52.416;13.548;2023-06-22T00:40:52;6.72;;;5.93;;
68593;SDS011;55563;52.416;13.548;2023-06-22T00:42:54;6.90;;;5.72;;
68593;SDS011;55563;52.416;13.548;2023-06-22T00:44:56;8.27;;;5.95;;
68593;SDS011;55563;52.416;13.548;2023-06-22T00:46:58;6.65;;;5.57;;
68593;SDS011;55563;52.416;13.548;2023-06-22T00:49:01;6.68;;;5.63;;
68593;SDS011;55563;52.416;13.548;2023-06-22T00:51:02;7.22;;;6.10;;
68593;SDS011;55563;52.416;13.548;2023-06-22T00:53:04;7.57;;;5.90;;
68593;SDS011;55563;52.416;13.548;2023-06-22T00:55:08;7.15;;;5.53;;
68593;SDS011;55563;52.416;13.548;2023-06-22T00:57:09;7.45;;;6.72;;
68593;SDS011;55563;52.416;13.548;2023-06-22T00:59:11;6.20;;;5.15;;
68593;SDS011;55563;52.416;13.548;2023-06-22T01:03:14;6.57;;;5.78;;
68593;SDS011;55563;52.416;13.548;2023-06-22T01:05:18;6.97;;;5.70;;
68593;SDS011;55563;52.416;13.548;2023-06-22T01:07:30;6.60;;;5.50;;
68593;SDS011;55563;52.416;13.548;2023-06-22T01:09:37;6.88;;;5.90;;
68593;SDS011;55563;52.416;13.548;2023-06-22T01:11:54;7.25;;;5.72;;
68593;SDS011;55563;52.416;13.548;2023-06-22T01:14:06;6.53;;;5.57;;
68593;SDS011;55563;52.416;13.548;2023-06-22T01:16:14;7.47;;;6.07;;
68593;SDS011;55563;52.416;13.548;2023-06-22T01:18:21;7.38;;;5.70;;
68593;SDS011;55563;52.416;13.548;2023-06-22T01:20:26;7.50;;;5.20;;
68593;SDS011;55563;52.416;13.548;2023-06-22T01:22:30;6.55;;;5.55;;
68593;SDS011;55563;52.416;13.548;2023-06-22T01:24:41;6.97;;;5.68;;
68593;SDS011;55563;52.416;13.548;2023-06-22T01:29:08;6.10;;;5.13;;
68593;SDS011;55563;52.416;13.548;2023-06-22T01:31:15;8.02;;;6.05;;
68593;SDS011;55563;52.416;13.548;2023-06-22T01:33:18;7.60;;;5.72;;
68593;SDS011;55563;52.416;13.548;2023-06-22T01:37:21;7.53;;;5.75;;
68593;SDS011;55563;52.416;13.548;2023-06-22T01:39:25;6.63;;;5.65;;
68593;SDS011;55563;52.416;13.548;2023-06-22T01:41:27;6.68;;;5.65;;
68593;SDS011;55563;52.416;13.548;2023-06-22T01:43:29;6.38;;;5.35;;
68593;SDS011;55563;52.416;13.548;2023-06-22T01:47:31;7.78;;;5.70;;
68593;SDS011;55563;52.416;13.548;2023-06-22T01:49:32;6.25;;;5.22;;
68593;SDS011;55563;52.416;13.548;2023-06-22T01:53:34;7.03;;;5.68;;
68593;SDS011;55563;52.416;13.548;2023-06-22T01:57:35;7.53;;;5.38;;
68593;SDS011;55563;52.416;13.548;2023-06-22T01:59:39;6.07;;;5.32;;
68593;SDS011;55563;52.416;13.548;2023-06-22T02:01:57;7.10;;;5.90;;
68593;SDS011;55563;52.416;13.548;2023-06-22T02:04:03;7.05;;;5.95;;
68593;SDS011;55563;52.416;13.548;2023-06-22T02:06:08;7.72;;;5.82;;
68593;SDS011;55563;52.416;13.548;2023-06-22T02:08:17;6.57;;;5.80;;
68593;SDS011;55563;52.416;13.548;2023-06-22T02:10:21;7.13;;;5.93;;
68593;SDS011;55563;52.416;13.548;2023-06-22T02:12:23;7.30;;;6.07;;
68593;SDS011;55563;52.416;13.548;2023-06-22T02:14:27;7.22;;;6.15;;
68593;SDS011;55563;52.416;13.548;2023-06-22T02:16:30;7.57;;;6.15;;
68593;SDS011;55563;52.416;13.548;2023-06-22T02:18:32;7.78;;;6.07;;
68593;SDS011;55563;52.416;13.548;2023-06-22T02:20:36;9.05;;;6.38;;
68593;SDS011;55563;52.416;13.548;2023-06-22T02:22:37;8.25;;;5.93;;
68593;SDS011;55563;52.416;13.548;2023-06-22T02:26:38;7.18;;;5.88;;
68593;SDS011;55563;52.416;13.548;2023-06-22T02:28:42;7.80;;;6.00;;
68593;SDS011;55563;52.416;13.548;2023-06-22T02:32:44;7.55;;;5.85;;
68593;SDS011;55563;52.416;13.548;2023-06-22T02:34:44;6.88;;;5.70;;
68593;SDS011;55563;52.416;13.548;2023-06-22T02:36:50;6.85;;;6.00;;
68593;SDS011;55563;52.416;13.548;2023-06-22T02:38:51;8.30;;;5.53;;
68593;SDS011;55563;52.416;13.548;2023-06-22T02:42:53;7.65;;;6.20;;
68593;SDS011;55563;52.416;13.548;2023-06-22T02:46:55;7.18;;;6.05;;
68593;SDS011;55563;52.416;13.548;2023-06-22T02:48:55;7.93;;;6.57;;
68593;SDS011;55563;52.416;13.548;2023-06-22T02:52:56;8.85;;;7.95;;
68593;SDS011;55563;52.416;13.548;2023-06-22T02:54:58;7.38;;;5.95;;
68593;SDS011;55563;52.416;13.548;2023-06-22T02:59:04;7.38;;;6.03;;
68593;SDS011;55563;52.416;13.548;2023-06-22T03:01:10;7.40;;;5.70;;
68593;SDS011;55563;52.416;13.548;2023-06-22T03:03:15;7.10;;;5.72;;
68593;SDS011;55563;52.416;13.548;2023-06-22T03:07:18;7.50;;;5.80;;
68593;SDS011;55563;52.416;13.548;2023-06-22T03:11:20;7.45;;;6.07;;
68593;SDS011;55563;52.416;13.548;2023-06-22T03:15:21;7.57;;;6.00;;
68593;SDS011;55563;52.416;13.548;2023-06-22T03:17:21;8.75;;;5.97;;
68593;SDS011;55563;52.416;13.548;2023-06-22T03:21:23;8.38;;;6.15;;
68593;SDS011;55563;52.416;13.548;2023-06-22T03:23:26;7.22;;;6.07;;
68593;SDS011;55563;52.416;13.548;2023-06-22T03:27:28;8.60;;;6.70;;
68593;SDS011;55563;52.416;13.548;2023-06-22T03:31:30;9.15;;;6.75;;
68593;SDS011;55563;52.416;13.548;2023-06-22T03:33:31;10.13;;;7.00;;
68593;SDS011;55563;52.416;13.548;2023-06-22T03:35:32;8.50;;;6.32;;
68593;SDS011;55563;52.416;13.548;2023-06-22T03:39:34;7.90;;;6.18;;
68593;SDS011;55563;52.416;13.548;2023-06-22T03:43:35;8.02;;;6.50;;
68593;SDS011;55563;52.416;13.548;2023-06-22T03:45:38;7.88;;;6.10;;
68593;SDS011;55563;52.416;13.548;2023-06-22T03:47:40;8.18;;;6.60;;
68593;SDS011;55563;52.416;13.548;2023-06-22T03:51:42;7.75;;;5.93;;
68593;SDS011;55563;52.416;13.548;2023-06-22T03:55:51;8.95;;;6.72;;
68593;SDS011;55563;52.416;13.548;2023-06-22T03:57:52;8.48;;;6.57;;
68593;SDS011;55563;52.416;13.548;2023-06-22T03:59:56;8.90;;;6.68;;
68593;SDS011;55563;52.416;13.548;2023-06-22T04:01:57;9.70;;;6.47;;
68593;SDS011;55563;52.416;13.548;2023-06-22T04:05:59;7.82;;;6.18;;
68593;SDS011;55563;52.416;13.548;2023-06-22T04:07:59;9.25;;;6.45;;
68593;SDS011;55563;52.416;13.548;2023-06-22T04:12:01;9.07;;;6.20;;
68593;SDS011;55563;52.416;13.548;2023-06-22T04:14:02;7.28;;;6.07;;
68593;SDS011;55563;52.416;13.548;2023-06-22T04:18:03;8.20;;;5.93;;
68593;SDS011;55563;52.416;13.548;2023-06-22T04:20:04;7.95;;;6.43;;
68593;SDS011;55563;52.416;13.548;2023-06-22T04:22:05;7.47;;;6.18;;
68593;SDS011;55563;52.416;13.548;2023-06-22T04:24:07;7.53;;;5.80;;
68593;SDS011;55563;52.416;13.548;2023-06-22T04:28:08;7.35;;;6.13;;
68593;SDS011;55563;52.416;13.548;2023-06-22T04:30:12;8.63;;;6.22;;
68593;SDS011;55563;52.416;13.548;2023-06-22T04:32:15;7.35;;;5.32;;
68593;SDS011;55563;52.416;13.548;2023-06-22T04:34:16;7.65;;;5.60;;
68593;SDS011;55563;52.416;13.548;2023-06-22T04:38:17;6.95;;;5.50;;
68593;SDS011;55563;52.416;13.548;2023-06-22T04:42:20;6.90;;;5.45;;
68593;SDS011;55563;52.416;13.548;2023-06-22T04:46:24;6.22;;;5.38;;
68593;SDS011;55563;52.416;13.548;2023-06-22T04:50:25;6.03;;;5.00;;
68593;SDS011;55563;52.416;13.548;2023-06-22T04:54:26;5.63;;;4.53;;
68593;SDS011;55563;52.416;13.548;2023-06-22T04:58:28;6.10;;;4.82;;
68593;SDS011;55563;52.416;13.548;2023-06-22T05:00:32;7.32;;;4.60;;
68593;SDS011;55563;52.416;13.548;2023-06-22T05:02:36;5.88;;;4.22;;
68593;SDS011;55563;52.416;13.548;2023-06-22T05:04:37;7.50;;;4.57;;
68593;SDS011;55563;52.416;13.548;2023-06-22T05:06:38;5.10;;;3.88;;
68593;SDS011;55563;52.416;13.548;2023-06-22T05:08:40;4.78;;;3.67;;
68593;SDS011;55563;52.416;13.548;2023-06-22T05:10:40;8.02;;;4.45;;
68593;SDS011;55563;52.416;13.548;2023-06-22T05:12:41;5.00;;;3.92;;
68593;SDS011;55563;52.416;13.548;2023-06-22T05:14:42;5.43;;;4.30;;
68593;SDS011;55563;52.416;13.548;2023-06-22T05:16:43;5.32;;;4.22;;
68593;SDS011;55563;52.416;13.548;2023-06-22T05:18:45;5.95;;;4.55;;
68593;SDS011;55563;52.416;13.548;2023-06-22T05:20:45;5.50;;;4.53;;
68593;SDS011;55563;52.416;13.548;2023-06-22T05:22:46;5.03;;;4.20;;
68593;SDS011;55563;52.416;13.548;2023-06-22T05:26:47;5.65;;;4.43;;
68593;SDS011;55563;52.416;13.548;2023-06-22T05:28:48;5.50;;;3.92;;
68593;SDS011;55563;52.416;13.548;2023-06-22T05:32:49;5.15;;;3.97;;
68593;SDS011;55563;52.416;13.548;2023-06-22T05:36:50;5.13;;;3.45;;
68593;SDS011;55563;52.416;13.548;2023-06-22T05:40:52;6.85;;;3.58;;
68593;SDS011;55563;52.416;13.548;2023-06-22T05:42:53;4.15;;;3.70;;
68593;SDS011;55563;52.416;13.548;2023-06-22T05:44:54;3.88;;;3.05;;
68593;SDS011;55563;52.416;13.548;2023-06-22T05:48:55;5.15;;;4.07;;
68593;SDS011;55563;52.416;13.548;2023-06-22T05:52:56;4.75;;;4.03;;
68593;SDS011;55563;52.416;13.548;2023-06-22T05:56:58;3.97;;;3.22;;
68593;SDS011;55563;52.416;13.548;2023-06-22T05:58:58;5.32;;;3.75;;
68593;SDS011;55563;52.416;13.548;2023-06-22T06:03:01;4.03;;;3.13;;
68593;SDS011;55563;52.416;13.548;2023-06-22T06:05:03;5.10;;;3.22;;
68593;SDS011;55563;52.416;13.548;2023-06-22T06:07:04;4.00;;;3.55;;
68593;SDS011;55563;52.416;13.548;2023-06-22T06:09:05;3.58;;;2.97;;
68593;SDS011;55563;52.416;13.548;2023-06-22T06:11:07;3.53;;;3.10;;
68593;SDS011;55563;52.416;13.548;2023-06-22T06:13:08;3.15;;;2.80;;
68593;SDS011;55563;52.416;13.548;2023-06-22T06:17:09;3.85;;;2.97;;
68593;SDS011;55563;52.416;13.548;2023-06-22T06:19:10;3.80;;;2.90;;
68593;SDS011;55563;52.416;13.548;2023-06-22T06:21:11;4.25;;;3.20;;
68593;SDS011;55563;52.416;13.548;2023-06-22T06:23:11;4.55;;;2.85;;
68593;SDS011;55563;52.416;13.548;2023-06-22T06:27:16;3.75;;;2.80;;
68593;SDS011;55563;52.416;13.548;2023-06-22T06:29:18;3.80;;;2.90;;
68593;SDS011;55563;52.416;13.548;2023-06-22T06:31:19;3.28;;;2.78;;
68593;SDS011;55563;52.416;13.548;2023-06-22T06:35:21;11.70;;;3.55;;
68593;SDS011;55563;52.416;13.548;2023-06-22T06:37:22;4.28;;;2.72;;
68593;SDS011;55563;52.416;13.548;2023-06-22T06:39:23;3.20;;;2.63;;
68593;SDS011;55563;52.416;13.548;2023-06-22T06:41:23;3.35;;;2.70;;
68593;SDS011;55563;52.416;13.548;2023-06-22T06:43:24;3.22;;;2.70;;
68593;SDS011;55563;52.416;13.548;2023-06-22T06:45:26;3.05;;;2.75;;
68593;SDS011;55563;52.416;13.548;2023-06-22T06:47:28;3.83;;;2.70;;
68593;SDS011;55563;52.416;13.548;2023-06-22T06:49:29;4.00;;;2.70;;
68593;SDS011;55563;52.416;13.548;2023-06-22T06:51:30;3.67;;;3.03;;
68593;SDS011;55563;52.416;13.548;2023-06-22T06:53:31;3.47;;;2.30;;
68593;SDS011;55563;52.416;13.548;2023-06-22T06:57:34;2.40;;;2.20;;
68593;SDS011;55563;52.416;13.548;2023-06-22T06:59:35;3.47;;;2.38;;
68593;SDS011;55563;52.416;13.548;2023-06-22T07:01:35;2.95;;;2.25;;
68593;SDS011;55563;52.416;13.548;2023-06-22T07:05:36;2.90;;;2.40;;
68593;SDS011;55563;52.416;13.548;2023-06-22T07:07:38;3.00;;;2.28;;
68593;SDS011;55563;52.416;13.548;2023-06-22T07:09:39;2.80;;;2.20;;
68593;SDS011;55563;52.416;13.548;2023-06-22T07:11:39;2.50;;;2.30;;
68593;SDS011;55563;52.416;13.548;2023-06-22T07:13:40;2.28;;;2.08;;
68593;SDS011;55563;52.416;13.548;2023-06-22T07:17:42;2.53;;;2.20;;
68593;SDS011;55563;52.416;13.548;2023-06-22T07:19:43;2.47;;;2.13;;
68593;SDS011;55563;52.416;13.548;2023-06-22T07:23:44;2.53;;;2.08;;
68593;SDS011;55563;52.416;13.548;2023-06-22T07:25:44;2.45;;;2.25;;
68593;SDS011;55563;52.416;13.548;2023-06-22T07:27:46;5.10;;;3.25;;
68593;SDS011;55563;52.416;13.548;2023-06-22T07:29:57;3.03;;;2.72;;
68593;SDS011;55563;52.416;13.548;2023-06-22T07:31:57;3.13;;;2.60;;
68593;SDS011;55563;52.416;13.548;2023-06-22T07:33:58;2.78;;;2.30;;
68593;SDS011;55563;52.416;13.548;2023-06-22T07:35:58;2.50;;;2.30;;
68593;SDS011;55563;52.416;13.548;2023-06-22T07:37:59;2.70;;;2.28;;
68593;SDS011;55563;52.416;13.548;2023-06-22T07:40:00;2.28;;;2.00;;
68593;SDS011;55563;52.416;13.548;2023-06-22T07:42:01;2.63;;;2.25;;
68593;SDS011;55563;52.416;13.548;2023-06-22T07:44:02;3.25;;;2.22;;
68593;SDS011;55563;52.416;13.548;2023-06-22T07:46:03;2.20;;;2.00;;
68593;SDS011;55563;52.416;13.548;2023-06-22T07:48:04;5.05;;;2.38;;
68593;SDS011;55563;52.416;13.548;2023-06-22T07:50:05;2.50;;;2.30;;
68593;SDS011;55563;52.416;13.548;2023-06-22T07:52:06;3.13;;;2.40;;
68593;SDS011;55563;52.416;13.548;2023-06-22T07:54:08;2.40;;;2.00;;
68593;SDS011;55563;52.416;13.548;2023-06-22T07:56:10;2.10;;;1.90;;
68593;SDS011;55563;52.416;13.548;2023-06-22T07:58:11;2.60;;;2.25;;
68593;SDS011;55563;52.416;13.548;2023-06-22T08:00:12;2.22;;;2.03;;
68593;SDS011;55563;52.416;13.548;2023-06-22T08:02:16;2.92;;;2.10;;
68593;SDS011;55563;52.416;13.548;2023-06-22T08:04:17;4.82;;;2.30;;
68593;SDS011;55563;52.416;13.548;2023-06-22T08:06:20;2.10;;;1.90;;
68593;SDS011;55563;52.416;13.548;2023-06-22T08:08:21;2.50;;;2.30;;
68593;SDS011;55563;52.416;13.548;2023-06-22T08:10:22;2.50;;;2.30;;
68593;SDS011;55563;52.416;13.548;2023-06-22T08:12:23;2.40;;;2.20;;
68593;SDS011;55563;52.416;13.548;2023-06-22T08:14:25;2.78;;;2.22;;
68593;SDS011;55563;52.416;13.548;2023-06-22T08:16:27;2.60;;;2.35;;
68593;SDS011;55563;52.416;13.548;2023-06-22T08:18:27;2.03;;;1.83;;
68593;SDS011;55563;52.416;13.548;2023-06-22T08:20:28;2.25;;;1.92;;
68593;SDS011;55563;52.416;13.548;2023-06-22T08:24:30;2.15;;;1.80;;
68593;SDS011;55563;52.416;13.548;2023-06-22T08:26:31;2.17;;;1.95;;
68593;SDS011;55563;52.416;13.548;2023-06-22T08:28:36;1.83;;;1.70;;
68593;SDS011;55563;52.416;13.548;2023-06-22T08:30:36;2.17;;;1.98;;
68593;SDS011;55563;52.416;13.548;2023-06-22T08:32:37;1.92;;;1.73;;
68593;SDS011;55563;52.416;13.548;2023-06-22T08:36:42;2.58;;;2.38;;
68593;SDS011;55563;52.416;13.548;2023-06-22T08:38:43;1.90;;;1.67;;
68593;SDS011;55563;52.416;13.548;2023-06-22T08:40:45;2.08;;;1.80;;
68593;SDS011;55563;52.416;13.548;2023-06-22T08:42:45;2.95;;;1.80;;
68593;SDS011;55563;52.416;13.548;2023-06-22T08:44:47;2.90;;;1.92;;
68593;SDS011;55563;52.416;13.548;2023-06-22T08:46:48;2.17;;;1.80;;
68593;SDS011;55563;52.416;13.548;2023-06-22T08:48:48;3.05;;;2.03;;
68593;SDS011;55563;52.416;13.548;2023-06-22T08:50:50;2.13;;;1.92;;
68593;SDS011;55563;52.416;13.548;2023-06-22T08:52:51;2.20;;;1.92;;
68593;SDS011;55563;52.416;13.548;2023-06-22T08:54:52;2.50;;;1.90;;
68593;SDS011;55563;52.416;13.548;2023-06-22T08:56:52;2.53;;;2.28;;
68593;SDS011;55563;52.416;13.548;2023-06-22T08:58:53;2.55;;;1.95;;
68593;SDS011;55563;52.416;13.548;2023-06-22T09:00:54;2.35;;;1.90;;
68593;SDS011;55563;52.416;13.548;2023-06-22T09:02:54;2.00;;;1.75;;
68593;SDS011;55563;52.416;13.548;2023-06-22T09:04:59;1.70;;;1.60;;
68593;SDS011;55563;52.416;13.548;2023-06-22T09:07:01;1.80;;;1.70;;
68593;SDS011;55563;52.416;13.548;2023-06-22T09:09:02;2.25;;;1.70;;
68593;SDS011;55563;52.416;13.548;2023-06-22T09:11:03;2.45;;;2.08;;
68593;SDS011;55563;52.416;13.548;2023-06-22T09:13:04;1.80;;;1.70;;
68593;SDS011;55563;52.416;13.548;2023-06-22T09:15:04;2.10;;;1.90;;
68593;SDS011;55563;52.416;13.548;2023-06-22T09:17:09;2.67;;;1.80;;
68593;SDS011;55563;52.416;13.548;2023-06-22T09:19:10;2.38;;;1.77;;
68593;SDS011;55563;52.416;13.548;2023-06-22T09:21:11;2.10;;;1.90;;
68593;SDS011;55563;52.416;13.548;2023-06-22T09:23:12;2.30;;;2.00;;
68593;SDS011;55563;52.416;13.548;2023-06-22T09:25:12;2.90;;;1.60;;
68593;SDS011;55563;52.416;13.548;2023-06-22T09:27:13;2.42;;;1.65;;
68593;SDS011;55563;52.416;13.548;2023-06-22T09:29:14;1.85;;;1.60;;
68593;SDS011;55563;52.416;13.548;2023-06-22T09:31:14;2.03;;;1.83;;
68593;SDS011;55563;52.416;13.548;2023-06-22T09:33:16;2.50;;;1.67;;
68593;SDS011;55563;52.416;13.548;2023-06-22T09:35:19;2.00;;;1.60;;
68593;SDS011;55563;52.416;13.548;2023-06-22T09:37:20;2.13;;;1.92;;
68593;SDS011;55563;52.416;13.548;2023-06-22T09:39:21;2.05;;;1.85;;
68593;SDS011;55563;52.416;13.548;2023-06-22T09:41:21;2.65;;;1.67;;
68593;SDS011;55563;52.416;13.548;2023-06-22T09:43:23;1.60;;;1.50;;
68593;SDS011;55563;52.416;13.548;2023-06-22T09:45:23;1.95;;;1.48;;
68593;SDS011;55563;52.416;13.548;2023-06-22T09:47:24;2.22;;;1.90;;
68593;SDS011;55563;52.416;13.548;2023-06-22T09:49:24;1.73;;;1.55;;
68593;SDS011;55563;52.416;13.548;2023-06-22T09:51:25;1.92;;;1.63;;
68593;SDS011;55563;52.416;13.548;2023-06-22T09:53:26;2.08;;;1.85;;
68593;SDS011;55563;52.416;13.548;2023-06-22T09:55:26;3.13;;;1.40;;
68593;SDS011;55563;52.416;13.548;2023-06-22T09:57:27;2.63;;;1.90;;
68593;SDS011;55563;52.416;13.548;2023-06-22T09:59:27;1.77;;;1.48;;
68593;SDS011;55563;52.416;13.548;2023-06-22T10:01:28;2.10;;;1.83;;
68593;SDS011;55563;52.416;13.548;2023-06-22T10:03:29;1.80;;;1.67;;
68593;SDS011;55563;52.416;13.548;2023-06-22T10:05:29;1.63;;;1.52;;
68593;SDS011;55563;52.416;13.548;2023-06-22T10:07:30;2.28;;;1.80;;
68593;SDS011;55563;52.416;13.548;2023-06-22T10:09:30;1.77;;;1.50;;
68593;SDS011;55563;52.416;13.548;2023-06-22T10:11:31;1.75;;;1.60;;
68593;SDS011;55563;52.416;13.548;2023-06-22T10:13:35;1.70;;;1.60;;
68593;SDS011;55563;52.416;13.548;2023-06-22T10:15:35;1.83;;;1.60;;
68593;SDS011;55563;52.416;13.548;2023-06-22T10:17:36;1.90;;;1.75;;
68593;SDS011;55563;52.416;13.548;2023-06-22T10:19:37;1.83;;;1.67;;
68593;SDS011;55563;52.416;13.548;2023-06-22T10:21:38;2.50;;;1.98;;
68593;SDS011;55563;52.416;13.548;2023-06-22T10:23:39;1.98;;;1.70;;
68593;SDS011;55563;52.416;13.548;2023-06-22T10:25:39;2.00;;;1.80;;
68593;SDS011;55563;52.416;13.548;2023-06-22T10:27:40;1.95;;;1.75;;
68593;SDS011;55563;52.416;13.548;2023-06-22T10:29:41;2.05;;;1.70;;
68593;SDS011;55563;52.416;13.548;2023-06-22T10:31:41;2.65;;;1.92;;
68593;SDS011;55563;52.416;13.548;2023-06-22T10:33:42;1.75;;;1.33;;
68593;SDS011;55563;52.416;13.548;2023-06-22T10:35:44;1.90;;;1.67;;
68593;SDS011;55563;52.416;13.548;2023-06-22T10:37:45;2.30;;;2.03;;
68593;SDS011;55563;52.416;13.548;2023-06-22T10:39:46;1.90;;;1.40;;
68593;SDS011;55563;52.416;13.548;2023-06-22T10:41:46;1.80;;;1.70;;
68593;SDS011;55563;52.416;13.548;2023-06-22T10:43:47;1.58;;;1.48;;
68593;SDS011;55563;52.416;13.548;2023-06-22T10:45:48;1.83;;;1.65;;
68593;SDS011;55563;52.416;13.548;2023-06-22T10:47:48;1.90;;;1.70;;
68593;SDS011;55563;52.416;13.548;2023-06-22T10:49:49;1.95;;;1.80;;
68593;SDS011;55563;52.416;13.548;2023-06-22T10:51:49;2.08;;;1.88;;
68593;SDS011;55563;52.416;13.548;2023-06-22T10:53:50;1.98;;;1.85;;
68593;SDS011;55563;52.416;13.548;2023-06-22T10:55:51;2.95;;;1.83;;
68593;SDS011;55563;52.416;13.548;2023-06-22T10:57:53;1.98;;;1.60;;
68593;SDS011;55563;52.416;13.548;2023-06-22T10:59:54;2.28;;;1.73;;
68593;SDS011;55563;52.416;13.548;2023-06-22T11:01:55;2.25;;;1.73;;
68593;SDS011;55563;52.416;13.548;2023-06-22T11:03:57;2.25;;;1.60;;
68593;SDS011;55563;52.416;13.548;2023-06-22T11:05:57;2.33;;;1.55;;
68593;SDS011;55563;52.416;13.548;2023-06-22T11:07:58;2.13;;;1.85;;
68593;SDS011;55563;52.416;13.548;2023-06-22T11:09:59;3.00;;;1.80;;
68593;SDS011;55563;52.416;13.548;2023-06-22T11:11:59;2.00;;;1.80;;
68593;SDS011;55563;52.416;13.548;2023-06-22T11:14:00;1.58;;;1.48;;
68593;SDS011;55563;52.416;13.548;2023-06-22T11:16:01;1.83;;;1.73;;
68593;SDS011;55563;52.416;13.548;2023-06-22T11:18:01;1.70;;;1.60;;
68593;SDS011;55563;52.416;13.548;2023-06-22T11:20:04;2.30;;;1.70;;
68593;SDS011;55563;52.416;13.548;2023-06-22T11:22:13;1.92;;;1.65;;
68593;SDS011;55563;52.416;13.548;2023-06-22T11:24:14;2.15;;;1.60;;
68593;SDS011;55563;52.416;13.548;2023-06-22T11:26:16;1.80;;;1.63;;
68593;SDS011;55563;52.416;13.548;2023-06-22T11:28:16;1.73;;;1.52;;
68593;SDS011;55563;52.416;13.548;2023-06-22T11:30:17;1.80;;;1.70;;
68593;SDS011;55563;52.416;13.548;2023-06-22T11:32:18;2.50;;;1.80;;
68593;SDS011;55563;52.416;13.548;2023-06-22T11:34:18;4.78;;;1.90;;
68593;SDS011;55563;52.416;13.548;2023-06-22T11:36:19;1.92;;;1.73;;
68593;SDS011;55563;52.416;13.548;2023-06-22T11:38:20;1.90;;;1.60;;
68593;SDS011;55563;52.416;13.548;2023-06-22T11:40:20;3.38;;;2.17;;
68593;SDS011;55563;52.416;13.548;2023-06-22T11:42:21;2.20;;;2.00;;
68593;SDS011;55563;52.416;13.548;2023-06-22T11:44:23;2.88;;;2.00;;
68593;SDS011;55563;52.416;13.548;2023-06-22T11:46:24;2.30;;;2.08;;
68593;SDS011;55563;52.416;13.548;2023-06-22T11:48:24;2.63;;;2.20;;
68593;SDS011;55563;52.416;13.548;2023-06-22T11:50:25;2.47;;;2.00;;
68593;SDS011;55563;52.416;13.548;2023-06-22T11:52:26;2.00;;;1.80;;
68593;SDS011;55563;52.416;13.548;2023-06-22T11:54:27;2.63;;;1.80;;
68593;SDS011;55563;52.416;13.548;2023-06-22T11:56:28;2.15;;;1.80;;
68593;SDS011;55563;52.416;13.548;2023-06-22T11:58:28;1.88;;;1.77;;
68593;SDS011;55563;52.416;13.548;2023-06-22T12:00:29;2.20;;;2.00;;
68593;SDS011;55563;52.416;13.548;2023-06-22T12:02:30;1.90;;;1.80;;
68593;SDS011;55563;52.416;13.548;2023-06-22T12:04:30;2.78;;;1.90;;
68593;SDS011;55563;52.416;13.548;2023-06-22T12:06:32;1.95;;;1.70;;
68593;SDS011;55563;52.416;13.548;2023-06-22T12:08:33;1.98;;;1.77;;
68593;SDS011;55563;52.416;13.548;2023-06-22T12:10:34;2.25;;;1.88;;
68593;SDS011;55563;52.416;13.548;2023-06-22T12:12:34;2.58;;;1.88;;
68593;SDS011;55563;52.416;13.548;2023-06-22T12:14:35;3.42;;;2.00;;
68593;SDS011;55563;52.416;13.548;2023-06-22T12:16:36;2.20;;;1.98;;
68593;SDS011;55563;52.416;13.548;2023-06-22T12:18:36;2.00;;;1.80;;
68593;SDS011;55563;52.416;13.548;2023-06-22T12:20:37;2.00;;;1.85;;
68593;SDS011;55563;52.416;13.548;2023-06-22T12:22:38;2.17;;;1.92;;
68593;SDS011;55563;52.416;13.548;2023-06-22T12:24:38;2.30;;;2.00;;
68593;SDS011;55563;52.416;13.548;2023-06-22T12:26:39;3.20;;;2.00;;
68593;SDS011;55563;52.416;13.548;2023-06-22T12:28:39;2.45;;;2.17;;
68593;SDS011;55563;52.416;13.548;2023-06-22T12:30:40;2.33;;;2.13;;
68593;SDS011;55563;52.416;13.548;2023-06-22T12:32:41;2.25;;;2.05;;
68593;SDS011;55563;52.416;13.548;2023-06-22T12:34:42;3.17;;;2.00;;
68593;SDS011;55563;52.416;13.548;2023-06-22T12:36:43;2.72;;;2.10;;
68593;SDS011;55563;52.416;13.548;2023-06-22T12:38:44;4.18;;;1.90;;
68593;SDS011;55563;52.416;13.548;2023-06-22T12:40:45;2.20;;;2.00;;
68593;SDS011;55563;52.416;13.548;2023-06-22T12:42:47;1.92;;;1.80;;
68593;SDS011;55563;52.416;13.548;2023-06-22T12:44:48;2.97;;;2.10;;
68593;SDS011;55563;52.416;13.548;2023-06-22T12:46:48;3.17;;;2.03;;
68593;SDS011;55563;52.416;13.548;2023-06-22T12:48:49;3.78;;;2.10;;
68593;SDS011;55563;52.416;13.548;2023-06-22T12:50:50;2.40;;;2.20;;
68593;SDS011;55563;52.416;13.548;2023-06-22T12:52:50;3.53;;;2.33;;
68593;SDS011;55563;52.416;13.548;2023-06-22T12:54:51;2.55;;;2.15;;
68593;SDS011;55563;52.416;13.548;2023-06-22T12:56:52;2.22;;;2.03;;
68593;SDS011;55563;52.416;13.548;2023-06-22T12:58:53;2.78;;;2.30;;
68593;SDS011;55563;52.416;13.548;2023-06-22T13:00:53;2.15;;;1.95;;
68593;SDS011;55563;52.416;13.548;2023-06-22T13:02:54;2.25;;;2.05;;
68593;SDS011;55563;52.416;13.548;2023-06-22T13:04:55;2.60;;;2.15;;
68593;SDS011;55563;52.416;13.548;2023-06-22T13:06:55;2.47;;;2.10;;
68593;SDS011;55563;52.416;13.548;2023-06-22T13:08:56;2.15;;;1.95;;
68593;SDS011;55563;52.416;13.548;2023-06-22T13:10:56;3.72;;;2.95;;
68593;SDS011;55563;52.416;13.548;2023-06-22T13:12:57;1.98;;;1.85;;
68593;SDS011;55563;52.416;13.548;2023-06-22T13:15:00;2.83;;;2.25;;
68593;SDS011;55563;52.416;13.548;2023-06-22T13:17:04;2.35;;;2.15;;
68593;SDS011;55563;52.416;13.548;2023-06-22T13:19:04;2.42;;;2.20;;
68593;SDS011;55563;52.416;13.548;2023-06-22T13:21:05;2.53;;;2.25;;
68593;SDS011;55563;52.416;13.548;2023-06-22T13:23:06;2.38;;;2.10;;
68593;SDS011;55563;52.416;13.548;2023-06-22T13:25:07;2.25;;;1.98;;
68593;SDS011;55563;52.416;13.548;2023-06-22T13:27:12;2.22;;;2.03;;
68593;SDS011;55563;52.416;13.548;2023-06-22T13:29:12;2.60;;;2.30;;
68593;SDS011;55563;52.416;13.548;2023-06-22T13:31:13;2.65;;;2.38;;
68593;SDS011;55563;52.416;13.548;2023-06-22T13:33:14;2.72;;;2.40;;
68593;SDS011;55563;52.416;13.548;2023-06-22T13:35:15;2.58;;;2.33;;
68593;SDS011;55563;52.416;13.548;2023-06-22T13:37:15;2.67;;;2.42;;
68593;SDS011;55563;52.416;13.548;2023-06-22T13:39:16;2.10;;;1.90;;
68593;SDS011;55563;52.416;13.548;2023-06-22T13:41:17;3.08;;;2.60;;
68593;SDS011;55563;52.416;13.548;2023-06-22T13:43:17;3.63;;;2.33;;
68593;SDS011;55563;52.416;13.548;2023-06-22T13:45:18;2.45;;;2.25;;
68593;SDS011;55563;52.416;13.548;2023-06-22T13:47:20;2.47;;;2.28;;